Lifter — V2DD4 — position and weather

sailwx.info

Track history (hours):
 
Tides and Currents Weather Stations Pressure Air Temp Water Temp Dewpoint Dewpoint Depression Visibility Wind Speed Wind Dir Waves Ship Positions

Lifter

Last reported at 2015-May-11 16:30 UTC. Time now 2015-May-22 16:07 UTC.
Position N 37°20' E 024°01'.
Warning: this ship's position is 10 days out of date.

Length 118 m; draft 8 m.

Type: Ship. MMSI: 305175000.

Date/timePositionNaut miles runAvg speedWind from/ knotsBaromVisibWave heightAir tempDewpointWater temp
2015-May-11 16:30N 37°20' E 024°01'42711.3
2015-May-10 02:33N 36°30' E 015°10'1212.3
2015-May-10 01:33N 36°31' E 014°55'1212.3
2015-May-10 00:33N 36°34' E 014°40'1212.6
2015-May-09 23:33N 36°38' E 014°25'1212.3
2015-May-09 22:33N 36°41' E 014°11'1312.6
2015-May-09 21:33N 36°44' E 013°55'1312.8
2015-May-09 20:33N 36°47' E 013°40'1312.8
2015-May-09 19:33N 36°51' E 013°24'1212.4
2015-May-09 18:33N 36°54' E 013°09'1212.3
2015-May-09 17:33N 36°57' E 012°55'1312.4
2015-May-09 16:33N 37°01' E 012°39'1212.4
2015-May-09 15:33N 37°04' E 012°25'1212.2
2015-May-09 14:33N 37°06' E 012°10'12712.4
2015-May-09 04:20N 37°26' E 009°33'1012.7
2015-May-09 03:33N 37°24' E 009°20'1812.5
2015-May-09 02:05N 37°20' E 008°58'39313.3
2015-May-07 20:33N 36°44' E 000°48'1312.6
2015-May-07 19:33N 36°42' E 000°32'1212.3
2015-May-07 18:33N 36°40' E 000°17'1211.8
2015-May-07 17:33N 36°38' E 000°03'1311.7
2015-May-07 16:27N 36°36' W 000°13'1011.6
2015-May-07 15:33N 36°34' W 000°26'1211.6
2015-May-07 14:33N 36°33' W 000°40'3911.9
2015-May-07 11:17N 36°27' W 001°28'2211.8
2015-May-07 09:23N 36°24' W 001°56'1011.9
2015-May-07 08:31N 36°23' W 002°08'1212.0
2015-May-07 07:32N 36°21' W 002°23'1212.0
2015-May-07 06:33N 36°19' W 002°37'1212.2
2015-May-07 05:33N 36°17' W 002°52'1212.2
2015-May-07 04:33N 36°15' W 003°07'1211.8
2015-May-07 03:33N 36°13' W 003°22'8812.5
2015-May-06 20:31N 36°00' W 005°10'1516.0
2015-May-06 19:34N 35°58' W 005°28'22811.1
2015-May-05 23:07N 37°34' W 009°46'1011.8
2015-May-05 22:16N 37°43' W 009°49'2512.2
2015-May-05 20:12N 38°08' W 009°56'1112.2
2015-May-05 19:19N 38°19' W 009°59'912.3
2015-May-05 18:33N 38°28' W 010°02'1212.3
2015-May-05 17:33N 38°40' W 010°06'1312.7
2015-May-05 16:33N 38°52' W 010°07'1312.8
2015-May-05 15:33N 39°05' W 010°08'148 7.8
2015-May-04 20:27N 41°27' W 009°12'7 7.8
2015-May-04 19:33N 41°33' W 009°08'14 6.2
2015-May-04 17:16N 41°47' W 009°03'5 4.8
2015-May-04 16:15N 41°52' W 009°01'  
Track history (hours):
 
Tides and Currents Weather Stations Pressure Air Temp Water Temp Dewpoint Dewpoint Depression Visibility Wind Speed Wind Dir Waves Ship Positions

Lifter

Last reported at 2015-May-11 16:30 UTC. Time now 2015-May-22 16:07 UTC.
Position N 37°20' E 024°01'.
Warning: this ship's position is 10 days out of date.

Length 118 m; draft 8 m.

Type: Ship. MMSI: 305175000.

Date/timePositionNaut miles runAvg speedWind from/ knotsBaromVisibWave heightAir tempDewpointWater temp
2015-May-11 16:30N 37°20' E 024°01'42711.3
2015-May-10 02:33N 36°30' E 015°10'1212.3
2015-May-10 01:33N 36°31' E 014°55'1212.3
2015-May-10 00:33N 36°34' E 014°40'1212.6
2015-May-09 23:33N 36°38' E 014°25'1212.3
2015-May-09 22:33N 36°41' E 014°11'1312.6
2015-May-09 21:33N 36°44' E 013°55'1312.8
2015-May-09 20:33N 36°47' E 013°40'1312.8
2015-May-09 19:33N 36°51' E 013°24'1212.4
2015-May-09 18:33N 36°54' E 013°09'1212.3
2015-May-09 17:33N 36°57' E 012°55'1312.4
2015-May-09 16:33N 37°01' E 012°39'1212.4
2015-May-09 15:33N 37°04' E 012°25'1212.2
2015-May-09 14:33N 37°06' E 012°10'12712.4
2015-May-09 04:20N 37°26' E 009°33'1012.7
2015-May-09 03:33N 37°24' E 009°20'1812.5
2015-May-09 02:05N 37°20' E 008°58'39313.3
2015-May-07 20:33N 36°44' E 000°48'1312.6
2015-May-07 19:33N 36°42' E 000°32'1212.3
2015-May-07 18:33N 36°40' E 000°17'1211.8
2015-May-07 17:33N 36°38' E 000°03'1311.7
2015-May-07 16:27N 36°36' W 000°13'1011.6
2015-May-07 15:33N 36°34' W 000°26'1211.6
2015-May-07 14:33N 36°33' W 000°40'3911.9
2015-May-07 11:17N 36°27' W 001°28'2211.8
2015-May-07 09:23N 36°24' W 001°56'1011.9
2015-May-07 08:31N 36°23' W 002°08'1212.0
2015-May-07 07:32N 36°21' W 002°23'1212.0
2015-May-07 06:33N 36°19' W 002°37'1212.2
2015-May-07 05:33N 36°17' W 002°52'1212.2
2015-May-07 04:33N 36°15' W 003°07'1211.8
2015-May-07 03:33N 36°13' W 003°22'8812.5
2015-May-06 20:31N 36°00' W 005°10'1516.0
2015-May-06 19:34N 35°58' W 005°28'22811.1
2015-May-05 23:07N 37°34' W 009°46'1011.8
2015-May-05 22:16N 37°43' W 009°49'2512.2
2015-May-05 20:12N 38°08' W 009°56'1112.2
2015-May-05 19:19N 38°19' W 009°59'912.3
2015-May-05 18:33N 38°28' W 010°02'1212.3
2015-May-05 17:33N 38°40' W 010°06'1312.7
2015-May-05 16:33N 38°52' W 010°07'1312.8
2015-May-05 15:33N 39°05' W 010°08'148 7.8
2015-May-04 20:27N 41°27' W 009°12'7 7.8
2015-May-04 19:33N 41°33' W 009°08'14 6.2
2015-May-04 17:16N 41°47' W 009°03'5 4.8
2015-May-04 16:15N 41°52' W 009°01'  

Dump ship's entire track history